createdAt,value
2022-09-24T00:01:41.186Z,100483.78
2022-09-24T00:04:11.772Z,100482.03
2022-09-24T00:06:44.994Z,100477.78
2022-09-24T00:09:17.688Z,100472.59
2022-09-24T00:11:45.799Z,100468.31
2022-09-24T00:14:13.564Z,100452.88
2022-09-24T00:16:42.823Z,100464.00
2022-09-24T00:19:10.831Z,100461.41
2022-09-24T00:21:39.283Z,100467.44
2022-09-24T00:24:35.672Z,100464.84
2022-09-24T00:27:04.278Z,100453.69
2022-09-24T00:29:34.547Z,100416.78
2022-09-24T00:32:02.767Z,100457.13
2022-09-24T00:34:30.064Z,100447.72
2022-09-24T00:36:57.149Z,100454.56
2022-09-24T00:39:24.236Z,100422.78
2022-09-24T00:41:51.397Z,100447.69
2022-09-24T00:44:46.266Z,100445.94
2022-09-24T00:47:29.031Z,100444.22
2022-09-24T00:50:21.857Z,100412.44
2022-09-24T00:53:01.488Z,100434.72
2022-09-24T00:55:28.948Z,100396.94
2022-09-24T00:57:59.770Z,100439.88
2022-09-24T01:00:27.322Z,100438.16
2022-09-24T01:03:01.122Z,100416.75
2022-09-24T01:05:29.670Z,100437.31
2022-09-24T01:07:58.396Z,100438.22
2022-09-24T01:10:49.357Z,100426.09
2022-09-24T01:13:25.327Z,100432.16
2022-09-24T01:16:16.132Z,100428.72
2022-09-24T01:19:01.157Z,100419.25
2022-09-24T01:21:54.428Z,100414.09
2022-09-24T01:24:30.151Z,100413.25
2022-09-24T01:27:20.339Z,100414.13
2022-09-24T01:30:02.000Z,100363.50
2022-09-24T01:32:38.463Z,100408.97
2022-09-24T01:35:17.173Z,100408.94
2022-09-24T01:37:49.902Z,100399.50
2022-09-24T01:40:19.318Z,100348.84
2022-09-24T01:42:46.664Z,100403.78
2022-09-24T01:45:15.009Z,100312.84
2022-09-24T01:47:42.416Z,100399.47
2022-09-24T01:50:12.691Z,100269.91
2022-09-24T01:52:46.320Z,100401.19
2022-09-24T01:55:17.321Z,100405.50
2022-09-24T01:57:49.825Z,100396.03
2022-09-24T02:00:21.873Z,100402.09
2022-09-24T02:03:09.207Z,100399.50
2022-09-24T02:05:55.363Z,100405.53
2022-09-24T02:08:25.189Z,100360.03
2022-09-24T02:11:08.490Z,100397.81
2022-09-24T02:13:42.270Z,100368.56
2022-09-24T02:16:15.225Z,100346.28
2022-09-24T02:18:47.187Z,100387.47
2022-09-24T02:21:17.053Z,100392.63
2022-09-24T02:24:02.558Z,100384.03
2022-09-24T02:26:30.023Z,100389.19
2022-09-24T02:28:59.370Z,100386.59
2022-09-24T02:31:32.796Z,100341.13
2022-09-24T02:34:22.740Z,100253.63
2022-09-24T02:36:55.560Z,100341.16
2022-09-24T02:39:22.977Z,100304.22
2022-09-24T02:41:52.037Z,100377.13
2022-09-24T02:44:19.638Z,100371.13
2022-09-24T02:46:47.834Z,100370.22
2022-09-24T02:49:15.648Z,100370.25
2022-09-24T02:51:43.509Z,100370.19
2022-09-24T02:54:11.611Z,100346.19
2022-09-24T02:56:39.350Z,100370.16
2022-09-24T02:59:06.959Z,100383.94
2022-09-24T03:01:35.224Z,100377.94
2022-09-24T03:04:02.862Z,100369.31
2022-09-24T03:06:30.866Z,100377.91
2022-09-24T03:08:58.249Z,100372.75
2022-09-24T03:11:25.981Z,100358.19
2022-09-24T03:13:53.227Z,100365.00
2022-09-24T03:16:20.671Z,100369.38
2022-09-24T03:18:48.417Z,100368.53
2022-09-24T03:21:18.930Z,100365.94
2022-09-24T03:23:46.812Z,100366.81
2022-09-24T03:26:14.760Z,100358.19
2022-09-24T03:28:42.308Z,100363.38
2022-09-24T03:31:10.120Z,100361.63
2022-09-24T03:33:44.862Z,100359.97
2022-09-24T03:36:23.670Z,100360.00
2022-09-24T03:38:56.769Z,100360.81
2022-09-24T03:41:27.961Z,100358.25
2022-09-24T03:43:55.928Z,100363.41
2022-09-24T03:46:30.160Z,100263.84
2022-09-24T03:48:59.455Z,100358.22
2022-09-24T03:51:26.537Z,100354.81
2022-09-24T03:53:53.691Z,100327.34
2022-09-24T03:56:21.127Z,100293.00
2022-09-24T03:58:48.549Z,100352.22
2022-09-24T04:01:20.833Z,100353.06
2022-09-24T04:03:49.239Z,100363.41
2022-09-24T04:06:20.729Z,100320.50
2022-09-24T04:08:50.839Z,100305.06
2022-09-24T04:11:18.027Z,100355.69
2022-09-24T04:13:45.445Z,100359.09
2022-09-24T04:16:12.730Z,100358.25
2022-09-24T04:18:40.083Z,100317.13
2022-09-24T04:21:07.437Z,100331.72
2022-09-24T04:23:34.980Z,100349.66
2022-09-24T04:26:02.697Z,100356.56
2022-09-24T04:28:30.785Z,100346.25
2022-09-24T04:30:58.672Z,100348.84
2022-09-24T04:33:26.557Z,100348.84
2022-09-24T04:35:53.751Z,100360.00
2022-09-24T04:38:21.524Z,100300.75
2022-09-24T04:40:49.521Z,100353.94
2022-09-24T04:43:19.479Z,100344.53
2022-09-24T04:45:47.021Z,100345.34
2022-09-24T04:48:14.503Z,100315.38
2022-09-24T04:50:45.741Z,100351.38
2022-09-24T04:53:13.702Z,100347.94
2022-09-24T04:55:42.037Z,100334.22
2022-09-24T04:58:10.023Z,100300.75
2022-09-24T05:00:37.998Z,100328.97
2022-09-24T05:03:05.779Z,100338.44
2022-09-24T05:05:34.177Z,100343.63
2022-09-24T05:08:02.021Z,100335.84
2022-09-24T05:10:31.964Z,100325.56
2022-09-24T05:12:59.895Z,100330.69
2022-09-24T05:15:27.198Z,100316.97
2022-09-24T05:17:54.463Z,100295.50
2022-09-24T05:20:21.777Z,100323.78
2022-09-24T05:22:50.216Z,100332.34
2022-09-24T05:25:19.577Z,100335.81
2022-09-24T05:27:48.559Z,100326.31
2022-09-24T05:30:17.509Z,100327.16
2022-09-24T05:32:45.026Z,100328.84
2022-09-24T05:35:13.896Z,100293.72
2022-09-24T05:37:41.354Z,100332.25
2022-09-24T05:40:27.205Z,100330.53
2022-09-24T05:43:03.513Z,100329.59
2022-09-24T05:45:31.914Z,100286.69
2022-09-24T05:48:01.709Z,100332.13
2022-09-24T05:50:29.002Z,100326.94
2022-09-24T05:52:56.404Z,100325.19
2022-09-24T05:55:23.689Z,100304.59
2022-09-24T05:57:50.873Z,100332.81
2022-09-24T06:00:18.024Z,100337.09
2022-09-24T06:02:45.238Z,100282.19
2022-09-24T06:05:13.116Z,100315.59
2022-09-24T06:07:40.417Z,100309.53
2022-09-24T06:10:08.607Z,100331.84
2022-09-24T06:12:35.874Z,100326.69
2022-09-24T06:15:03.484Z,100335.19
2022-09-24T06:17:32.732Z,100302.63
2022-09-24T06:19:59.892Z,100330.88
2022-09-24T06:22:29.096Z,100335.13
2022-09-24T06:24:56.480Z,100326.50
2022-09-24T06:27:24.217Z,100328.16
2022-09-24T06:29:51.234Z,100321.28
2022-09-24T06:32:19.997Z,100280.09
2022-09-24T06:34:47.800Z,100294.66
2022-09-24T06:37:15.118Z,100330.69
2022-09-24T06:39:42.794Z,100309.09
2022-09-24T06:42:10.049Z,100332.25
2022-09-24T06:44:37.321Z,100305.69
2022-09-24T06:47:04.624Z,100312.44
2022-09-24T06:49:34.274Z,100207.97
2022-09-24T06:52:02.641Z,100271.19
2022-09-24T06:54:29.857Z,100338.03
2022-09-24T06:56:57.105Z,100321.59
2022-09-24T06:59:24.416Z,100331.00
2022-09-24T07:01:51.588Z,100339.59
2022-09-24T07:04:18.881Z,100336.13
2022-09-24T07:07:04.570Z,100331.84
2022-09-24T07:09:31.938Z,100294.94
2022-09-24T07:12:01.817Z,100337.81
2022-09-24T07:14:28.894Z,100346.31
2022-09-24T07:16:56.092Z,100341.97
2022-09-24T07:19:23.406Z,100304.06
2022-09-24T07:21:50.503Z,100341.72
2022-09-24T07:24:18.962Z,100330.44
2022-09-24T07:26:46.574Z,100354.41
2022-09-24T07:29:13.820Z,100351.66
2022-09-24T07:31:41.177Z,100308.72
2022-09-24T07:34:09.312Z,100342.06
2022-09-24T07:36:36.852Z,100359.13
2022-09-24T07:39:04.412Z,100294.78
2022-09-24T07:41:31.836Z,100348.81
2022-09-24T07:43:59.349Z,100360.78
2022-09-24T07:46:27.042Z,100329.69
2022-09-24T07:48:56.606Z,100353.69
2022-09-24T07:51:26.267Z,100357.09
2022-09-24T07:53:53.959Z,100333.91
2022-09-24T07:56:22.254Z,100352.69
2022-09-24T07:58:50.606Z,100360.31
2022-09-24T08:01:18.780Z,100326.00
2022-09-24T08:03:46.687Z,100302.81
2022-09-24T08:06:13.911Z,100277.06
2022-09-24T08:08:41.245Z,100310.22
2022-09-24T08:11:12.769Z,100361.63
2022-09-24T08:13:40.370Z,100346.16
2022-09-24T08:16:07.529Z,100358.00
2022-09-24T08:18:35.897Z,100356.22
2022-09-24T08:21:07.701Z,100355.16
2022-09-24T08:23:35.419Z,100357.81
2022-09-24T08:26:03.194Z,100318.34
2022-09-24T08:28:31.801Z,100352.41
2022-09-24T08:31:00.712Z,100366.78
2022-09-24T08:33:29.117Z,100353.78
2022-09-24T08:35:56.183Z,100295.53
2022-09-24T08:38:23.344Z,100356.94
2022-09-24T08:41:01.022Z,100349.19
2022-09-24T08:43:54.683Z,100341.47
2022-09-24T08:46:51.190Z,100349.97
2022-09-24T08:49:24.739Z,100371.41
2022-09-24T08:52:18.757Z,100362.66
2022-09-24T08:54:47.044Z,100344.69
2022-09-24T08:57:21.098Z,100361.59
2022-09-24T08:59:52.242Z,100306.84
2022-09-24T09:02:40.344Z,100335.75
2022-09-24T09:05:43.754Z,100364.94
2022-09-24T09:08:48.916Z,100348.41
2022-09-24T09:11:15.577Z,100354.31
2022-09-24T09:14:15.203Z,100349.84
2022-09-24T09:17:17.193Z,100360.88
2022-09-24T09:19:53.526Z,100359.00
2022-09-24T09:22:24.180Z,100363.22
2022-09-24T09:24:52.447Z,100358.69
2022-09-24T09:27:21.038Z,100354.09
2022-09-24T09:29:57.786Z,100359.09
2022-09-24T09:32:38.674Z,100337.53
2022-09-24T09:35:19.697Z,100350.75
2022-09-24T09:38:23.771Z,100346.81
2022-09-24T09:41:03.888Z,100350.06
2022-09-24T09:43:31.196Z,100338.81
2022-09-24T09:46:16.101Z,100353.22
2022-09-24T09:48:52.459Z,100347.00
2022-09-24T09:51:23.018Z,100351.19
2022-09-24T09:54:08.959Z,100332.94
2022-09-24T09:56:44.281Z,100336.88
2022-09-24T09:59:11.527Z,100342.00
2022-09-24T10:01:45.673Z,100342.00
2022-09-24T10:04:41.776Z,100344.53
2022-09-24T10:07:11.854Z,100341.59
2022-09-24T10:09:40.770Z,100337.91
2022-09-24T10:12:09.337Z,100334.09
2022-09-24T10:14:36.624Z,100341.78
2022-09-24T10:17:06.032Z,100325.94
2022-09-24T10:19:37.034Z,100304.63
2022-09-24T10:22:11.313Z,100329.84
2022-09-24T10:24:43.896Z,100341.66
2022-09-24T10:27:20.828Z,100317.72
2022-09-24T10:30:07.122Z,100277.81
2022-09-24T10:32:34.295Z,100326.53
2022-09-24T10:35:06.299Z,100331.84
2022-09-24T10:37:33.524Z,100308.13
2022-09-24T10:40:04.261Z,100306.31
2022-09-24T10:42:31.785Z,100326.72
2022-09-24T10:45:01.925Z,100319.63
2022-09-24T10:47:41.503Z,100317.16
2022-09-24T10:50:27.911Z,100316.50
2022-09-24T10:53:04.149Z,100292.19
2022-09-24T10:55:41.891Z,100314.09
2022-09-24T10:58:44.490Z,100313.53
2022-09-24T11:01:24.192Z,100311.50
2022-09-24T11:04:10.383Z,100306.19
2022-09-24T11:07:05.057Z,100313.25
2022-09-24T11:09:44.576Z,100305.00
2022-09-24T11:12:20.723Z,100305.19
2022-09-24T11:15:00.908Z,100283.72
2022-09-24T11:17:43.574Z,100306.28
2022-09-24T11:20:39.814Z,100302.78
2022-09-24T11:23:15.863Z,100299.72
2022-09-24T11:26:01.422Z,100291.31
2022-09-24T11:28:40.337Z,100285.63
2022-09-24T11:31:10.213Z,100281.88
2022-09-24T11:34:03.548Z,100196.88
2022-09-24T11:36:42.460Z,100285.84
2022-09-24T11:39:27.509Z,100281.47
2022-09-24T11:41:57.933Z,100278.56
2022-09-24T11:44:27.835Z,100282.13
2022-09-24T11:47:13.263Z,100284.66
2022-09-24T11:49:49.763Z,100278.47
2022-09-24T11:52:37.655Z,100279.66
2022-09-24T11:55:10.641Z,100281.31
2022-09-24T11:58:02.038Z,100211.91
2022-09-24T12:00:40.853Z,100282.56
2022-09-24T12:04:06.443Z,100270.13
2022-09-24T12:06:52.807Z,100281.66
2022-09-24T12:09:41.457Z,100276.88
2022-09-24T12:12:22.344Z,100247.31
2022-09-24T12:15:05.227Z,100269.22
2022-09-24T12:17:45.622Z,100274.47
2022-09-24T12:20:12.946Z,100271.16
2022-09-24T12:22:42.905Z,100276.34
2022-09-24T12:25:13.197Z,100268.13
2022-09-24T12:27:40.322Z,100276.88
2022-09-24T12:30:40.783Z,100267.44
2022-09-24T12:33:13.805Z,100273.72
2022-09-24T12:35:56.227Z,100269.03
2022-09-24T12:38:37.988Z,100265.97
2022-09-24T12:41:20.353Z,100271.44
2022-09-24T12:44:02.207Z,100269.13
2022-09-24T12:46:38.734Z,100275.50
2022-09-24T12:49:26.433Z,100272.19
2022-09-24T12:51:56.003Z,100277.69
2022-09-24T12:54:28.857Z,100257.44
2022-09-24T12:57:24.967Z,100264.38
2022-09-24T13:00:01.854Z,100275.88
2022-09-24T13:02:31.714Z,100268.19
2022-09-24T13:05:01.901Z,100266.59
2022-09-24T13:07:36.485Z,100266.59
2022-09-24T13:10:24.058Z,100268.41
2022-09-24T13:12:52.125Z,100242.91
2022-09-24T13:15:33.053Z,100241.22
2022-09-24T13:18:25.441Z,100258.28
2022-09-24T13:21:18.043Z,100259.88
2022-09-24T13:23:49.790Z,100264.97
2022-09-24T13:26:30.522Z,100256.44
2022-09-24T13:29:06.862Z,100225.56
2022-09-24T13:31:49.120Z,100246.00
2022-09-24T13:34:27.729Z,100253.34
2022-09-24T13:37:02.526Z,100257.53
2022-09-24T13:40:00.330Z,100251.41
2022-09-24T13:42:34.384Z,100248.59
2022-09-24T13:45:09.352Z,100243.47
2022-09-24T13:47:56.950Z,100247.78
2022-09-24T13:50:40.586Z,100250.38
2022-09-24T13:53:40.162Z,100199.94
2022-09-24T13:56:14.533Z,100243.25
2022-09-24T13:58:43.357Z,100237.91
2022-09-24T14:01:17.805Z,100236.19
2022-09-24T14:03:57.940Z,100235.28
2022-09-24T14:06:38.035Z,100229.19
2022-09-24T14:09:17.400Z,100225.78
2022-09-24T14:11:52.788Z,100231.91
2022-09-24T14:14:24.951Z,100227.59
2022-09-24T14:16:55.319Z,100220.78
2022-09-24T14:19:23.789Z,100228.63
2022-09-24T14:21:57.807Z,100219.16
2022-09-24T14:24:30.380Z,100224.38
2022-09-24T14:27:06.097Z,100219.28
2022-09-24T14:29:48.242Z,100194.81
2022-09-24T14:32:24.693Z,100223.00
2022-09-24T14:34:54.982Z,100217.88
2022-09-24T14:37:27.804Z,100221.31
2022-09-24T14:40:02.722Z,100212.78
2022-09-24T14:42:42.317Z,100197.66
2022-09-24T14:45:17.174Z,100221.63
2022-09-24T14:47:44.644Z,100180.81
2022-09-24T14:50:35.979Z,100194.53
2022-09-24T14:53:13.359Z,100225.22
2022-09-24T14:55:43.050Z,100187.72
2022-09-24T14:58:39.239Z,100220.22
2022-09-24T15:01:15.816Z,100215.22
2022-09-24T15:03:49.630Z,100218.81
2022-09-24T15:06:19.839Z,100222.34
2022-09-24T15:09:30.087Z,100212.19
2022-09-24T15:12:08.353Z,100200.38
2022-09-24T15:14:37.128Z,100197.16
2022-09-24T15:17:21.093Z,100212.59
2022-09-24T15:19:48.319Z,100214.50
2022-09-24T15:22:15.789Z,100212.81
2022-09-24T15:24:43.069Z,100206.06
2022-09-24T15:27:27.593Z,100212.97
2022-09-24T15:29:56.954Z,100191.06
2022-09-24T15:32:24.384Z,100214.81
2022-09-24T15:34:51.408Z,100153.47
2022-09-24T15:37:22.031Z,100216.72
2022-09-24T15:39:50.571Z,100217.75
2022-09-24T15:42:19.859Z,100216.06
2022-09-24T15:44:48.152Z,100207.78
2022-09-24T15:47:15.354Z,100220.66
2022-09-24T15:49:42.829Z,100215.59
2022-09-24T15:52:16.545Z,100215.72
2022-09-24T15:54:43.639Z,100211.59
2022-09-24T15:57:13.934Z,100216.84
2022-09-24T15:59:41.104Z,100217.69
2022-09-24T16:02:37.234Z,100208.50
2022-09-24T16:05:11.510Z,100210.88
2022-09-24T16:07:38.764Z,100217.97
2022-09-24T16:10:06.637Z,100217.88
2022-09-24T16:12:34.023Z,100161.63
2022-09-24T16:15:01.368Z,100216.34
2022-09-24T16:17:29.058Z,100209.88
2022-09-24T16:19:56.553Z,100216.53
2022-09-24T16:22:24.431Z,100218.31
2022-09-24T16:24:51.621Z,100205.56
2022-09-24T16:27:18.879Z,100213.41
2022-09-24T16:29:46.033Z,100192.31
2022-09-24T16:32:14.118Z,100218.88
2022-09-24T16:34:41.893Z,100225.09
2022-09-24T16:37:09.805Z,100220.91
2022-09-24T16:39:37.280Z,100221.09
2022-09-24T16:42:04.740Z,100202.56
2022-09-24T16:44:31.931Z,100223.13
2022-09-24T16:46:59.142Z,100210.50
2022-09-24T16:49:26.551Z,100207.06
2022-09-24T16:51:53.957Z,100214.94
2022-09-24T16:54:23.032Z,100223.75
2022-09-24T16:56:52.372Z,100225.53
2022-09-24T16:59:19.885Z,100225.78
2022-09-24T17:01:47.303Z,100221.69
2022-09-24T17:04:14.652Z,100196.16
2022-09-24T17:06:44.772Z,100227.16
2022-09-24T17:09:30.397Z,100194.81
2022-09-24T17:11:58.160Z,100182.13
2022-09-24T17:14:25.695Z,100228.41
2022-09-24T17:16:53.037Z,100213.16
2022-09-24T17:19:20.457Z,100181.72
2022-09-24T17:21:50.648Z,100187.75
2022-09-24T17:24:21.392Z,100185.25
2022-09-24T17:26:50.030Z,100224.72
2022-09-24T17:29:20.836Z,100229.00
2022-09-24T17:31:49.408Z,100229.91
2022-09-24T17:34:16.822Z,100217.25
2022-09-24T17:36:44.099Z,100213.06
2022-09-24T17:39:13.802Z,100234.47
2022-09-24T17:41:41.842Z,100190.00
2022-09-24T17:44:10.933Z,100195.28
2022-09-24T17:46:38.402Z,100227.69
2022-09-24T17:49:06.138Z,100238.97
2022-09-24T17:51:36.682Z,100231.25
2022-09-24T17:54:09.793Z,100233.03
2022-09-24T17:56:40.634Z,100234.94
2022-09-24T17:59:10.150Z,100187.03
2022-09-24T18:01:39.369Z,100241.03
2022-09-24T18:04:10.624Z,100235.06
2022-09-24T18:06:40.402Z,100241.88
2022-09-24T18:09:09.416Z,100248.00
2022-09-24T18:11:42.431Z,100242.81
2022-09-24T18:14:14.975Z,100242.94
2022-09-24T18:16:42.379Z,100241.19
2022-09-24T18:19:11.179Z,100219.84
2022-09-24T18:21:38.863Z,100248.06
2022-09-24T18:24:06.119Z,100249.81
2022-09-24T18:26:36.094Z,100246.41
2022-09-24T18:29:16.010Z,100247.31
2022-09-24T18:31:44.962Z,100247.47
2022-09-24T18:34:15.220Z,100244.81
2022-09-24T18:36:44.379Z,100236.41
2022-09-24T18:39:13.814Z,100244.03
2022-09-24T18:41:42.309Z,100248.38
2022-09-24T18:44:10.694Z,100209.22
2022-09-24T18:46:38.099Z,100210.06
2022-09-24T18:49:06.709Z,100257.88
2022-09-24T18:51:36.661Z,100259.75
2022-09-24T18:54:11.433Z,100264.03
2022-09-24T18:56:38.975Z,100252.97
2022-09-24T18:59:11.006Z,100263.16
2022-09-24T19:01:39.807Z,100266.59
2022-09-24T19:04:11.110Z,100222.09
2022-09-24T19:06:41.023Z,100261.38
2022-09-24T19:09:09.394Z,100223.69
2022-09-24T19:11:37.181Z,100257.03
2022-09-24T19:14:04.714Z,100254.44
2022-09-24T19:16:32.802Z,100151.91
2022-09-24T19:19:01.902Z,100254.56
2022-09-24T19:21:29.643Z,100238.31
2022-09-24T19:23:58.752Z,100254.44
2022-09-24T19:26:29.485Z,100252.75
2022-09-24T19:28:57.466Z,100263.97
2022-09-24T19:31:33.443Z,100266.59
2022-09-24T19:34:04.697Z,100268.28
2022-09-24T19:36:38.698Z,100263.09
2022-09-24T19:39:14.019Z,100259.75
2022-09-24T19:41:41.364Z,100264.03
2022-09-24T19:44:13.094Z,100268.34
2022-09-24T19:46:41.233Z,100261.53
2022-09-24T19:49:08.862Z,100270.25
2022-09-24T19:51:36.700Z,100268.53
2022-09-24T19:54:09.302Z,100267.75
2022-09-24T19:56:37.223Z,100243.06
2022-09-24T19:59:05.027Z,100237.88
2022-09-24T20:01:33.666Z,100229.44
2022-09-24T20:04:04.432Z,100261.88
2022-09-24T20:06:34.137Z,100254.97
2022-09-24T20:09:01.993Z,100234.69
2022-09-24T20:11:33.084Z,100248.38
2022-09-24T20:14:01.634Z,100263.75
2022-09-24T20:16:32.840Z,100270.66
2022-09-24T20:19:01.952Z,100265.44
2022-09-24T20:21:34.948Z,100269.84
2022-09-24T20:24:04.224Z,100270.78
2022-09-24T20:26:50.869Z,100270.88
2022-09-24T20:29:22.016Z,100263.25
2022-09-24T20:31:52.366Z,100269.28
2022-09-24T20:34:22.469Z,100264.25
2022-09-24T20:36:50.887Z,100267.72
2022-09-24T20:39:18.958Z,100255.81
2022-09-24T20:41:46.288Z,100272.97
2022-09-24T20:44:14.226Z,100269.56
2022-09-24T20:46:41.415Z,100219.94
2022-09-24T20:49:14.333Z,100213.09
2022-09-24T20:51:41.532Z,100267.00
2022-09-24T20:54:08.846Z,100254.13
2022-09-24T20:56:35.951Z,100266.25
2022-09-24T20:59:03.872Z,100262.88
2022-09-24T21:01:31.372Z,100203.81
2022-09-24T21:03:58.587Z,100259.50
2022-09-24T21:06:26.055Z,100261.25
2022-09-24T21:08:53.503Z,100273.25
2022-09-24T21:11:26.875Z,100221.81
2022-09-24T21:13:56.460Z,100255.28
2022-09-24T21:16:26.681Z,100269.88
2022-09-24T21:18:56.830Z,100271.63
2022-09-24T21:21:27.202Z,100269.13
2022-09-24T21:23:54.883Z,100268.34
2022-09-24T21:26:29.479Z,100270.06
2022-09-24T21:29:00.422Z,100271.78
2022-09-24T21:31:30.207Z,100271.78
2022-09-24T21:33:58.047Z,100246.94
2022-09-24T21:36:29.440Z,100255.41
2022-09-24T21:38:59.101Z,100261.47
2022-09-24T21:41:31.344Z,100256.31
2022-09-24T21:43:58.932Z,100258.91
2022-09-24T21:46:28.550Z,100255.41
2022-09-24T21:48:56.445Z,100254.50
2022-09-24T21:51:24.607Z,100261.38
2022-09-24T21:53:58.003Z,100255.34
2022-09-24T21:56:25.479Z,100258.78
2022-09-24T21:58:54.211Z,100252.75
2022-09-24T22:01:27.961Z,100251.00
2022-09-24T22:03:57.354Z,100252.63
2022-09-24T22:06:29.827Z,100175.72
2022-09-24T22:09:01.098Z,100239.00
2022-09-24T22:11:29.220Z,100258.78
2022-09-24T22:14:01.444Z,100254.53
2022-09-24T22:16:30.337Z,100254.50
2022-09-24T22:18:58.580Z,100248.44
2022-09-24T22:21:26.363Z,100254.50
2022-09-24T22:23:54.960Z,100247.50
2022-09-24T22:26:22.404Z,100247.44
2022-09-24T22:28:49.762Z,100190.97
2022-09-24T22:31:18.493Z,100238.81
2022-09-24T22:34:04.668Z,100237.91
2022-09-24T22:36:33.581Z,100146.31
2022-09-24T22:39:01.646Z,100113.84
2022-09-24T22:41:30.219Z,100233.66
2022-09-24T22:43:58.175Z,100235.44
2022-09-24T22:46:27.672Z,100229.41
2022-09-24T22:48:56.440Z,100228.63
2022-09-24T22:51:24.917Z,100219.22
2022-09-24T22:53:52.580Z,100220.78
2022-09-24T22:56:22.493Z,100219.94
2022-09-24T22:58:55.667Z,100214.75
2022-09-24T23:01:29.248Z,100207.03
2022-09-24T23:03:57.785Z,100211.41
2022-09-24T23:06:25.422Z,100208.00
2022-09-24T23:08:54.842Z,100213.94
2022-09-24T23:11:26.293Z,100221.69
2022-09-24T23:13:56.506Z,100209.59
2022-09-24T23:16:37.803Z,100214.78
2022-09-24T23:19:07.763Z,100195.94
2022-09-24T23:21:35.624Z,100221.72
2022-09-24T23:24:05.831Z,100216.63
2022-09-24T23:26:33.610Z,100204.59
2022-09-24T23:29:01.596Z,100226.06
2022-09-24T23:31:31.911Z,100228.66
2022-09-24T23:34:01.478Z,100227.84
2022-09-24T23:36:31.377Z,100228.72
2022-09-24T23:39:02.490Z,100228.72
2022-09-24T23:41:31.754Z,100225.28
2022-09-24T23:43:59.673Z,100227.06
2022-09-24T23:46:27.762Z,100225.47
2022-09-24T23:48:56.078Z,100228.91
2022-09-24T23:51:23.694Z,100226.31
2022-09-24T23:53:51.564Z,100225.50
2022-09-24T23:56:20.052Z,100224.66
2022-09-24T23:58:47.422Z,100169.13
